createdAt,value
2023-03-24T00:00:04.925Z,16.03
2023-03-24T00:02:31.702Z,17.73
2023-03-24T00:04:58.406Z,19.02
2023-03-24T00:07:25.657Z,18.48
2023-03-24T00:09:53.913Z,18.35
2023-03-24T00:12:20.586Z,16.33
2023-03-24T00:14:47.372Z,22.05
2023-03-24T00:17:14.107Z,16.45
2023-03-24T00:19:41.285Z,15.52
2023-03-24T00:22:09.411Z,16.42
2023-03-24T00:24:36.046Z,16.23
2023-03-24T00:27:02.653Z,16.98
2023-03-24T00:29:29.320Z,21.70
2023-03-24T00:31:56.249Z,19.30
2023-03-24T00:34:23.345Z,18.98
2023-03-24T00:36:51.354Z,18.27
2023-03-24T00:39:19.874Z,18.17
2023-03-24T00:41:47.914Z,18.58
2023-03-24T00:44:16.281Z,20.60
2023-03-24T00:46:42.888Z,20.52
2023-03-24T00:49:10.269Z,22.57
2023-03-24T00:51:42.602Z,20.30
2023-03-24T00:54:13.021Z,22.23
2023-03-24T00:56:41.091Z,21.55
2023-03-24T00:59:08.553Z,22.83
2023-03-24T01:01:36.227Z,23.17
2023-03-24T01:04:04.617Z,23.70
2023-03-24T01:06:31.372Z,22.73
2023-03-24T01:08:57.993Z,21.90
2023-03-24T01:11:26.484Z,27.75
2023-03-24T01:13:53.680Z,22.47
2023-03-24T01:16:20.522Z,22.20
2023-03-24T01:18:47.256Z,27.92
2023-03-24T01:21:13.860Z,24.27
2023-03-24T01:23:40.627Z,22.52
2023-03-24T01:26:08.919Z,30.80
2023-03-24T01:28:36.589Z,25.75
2023-03-24T01:31:03.194Z,25.90
2023-03-24T01:33:29.740Z,25.50
2023-03-24T01:35:56.320Z,24.40
2023-03-24T01:38:22.897Z,22.37
2023-03-24T01:40:49.557Z,24.52
2023-03-24T01:43:23.780Z,23.75
2023-03-24T01:46:15.636Z,26.83
2023-03-24T01:49:04.947Z,25.08
2023-03-24T01:51:44.508Z,22.10
2023-03-24T01:54:17.129Z,22.73
2023-03-24T01:56:50.549Z,24.35
2023-03-24T01:59:20.812Z,27.45
2023-03-24T02:01:47.397Z,23.90
2023-03-24T02:04:14.722Z,23.57
2023-03-24T02:06:45.409Z,21.67
2023-03-24T02:09:14.183Z,25.30
2023-03-24T02:11:41.799Z,26.20
2023-03-24T02:14:11.034Z,25.55
2023-03-24T02:17:05.587Z,24.80
2023-03-24T02:19:50.421Z,21.83
2023-03-24T02:22:26.005Z,25.38
2023-03-24T02:25:30.069Z,22.33
2023-03-24T02:28:02.316Z,22.63
2023-03-24T02:30:56.710Z,27.07
2023-03-24T02:33:48.131Z,22.48
2023-03-24T02:36:28.262Z,19.90
2023-03-24T02:39:36.430Z,22.08
2023-03-24T02:42:27.508Z,21.63
2023-03-24T02:45:08.949Z,18.93
2023-03-24T02:48:14.324Z,19.25
2023-03-24T02:51:04.216Z,18.10
2023-03-24T02:53:53.687Z,18.77
2023-03-24T02:56:30.390Z,19.30
2023-03-24T02:58:59.959Z,20.90
2023-03-24T03:01:32.395Z,17.73
2023-03-24T03:04:05.203Z,20.83
2023-03-24T03:06:38.197Z,20.42
2023-03-24T03:09:11.763Z,18.15
2023-03-24T03:11:41.539Z,19.27
2023-03-24T03:14:34.055Z,18.60
2023-03-24T03:17:15.602Z,19.27
2023-03-24T03:19:48.614Z,20.15
2023-03-24T03:22:23.205Z,20.88
2023-03-24T03:24:54.445Z,20.37
2023-03-24T03:27:25.781Z,18.83
2023-03-24T03:29:56.005Z,18.23
2023-03-24T03:32:27.950Z,16.98
2023-03-24T03:35:19.754Z,18.67
2023-03-24T03:37:57.563Z,19.60
2023-03-24T03:40:56.480Z,20.58
2023-03-24T03:43:25.626Z,16.83
2023-03-24T03:45:52.811Z,17.35
2023-03-24T03:48:19.732Z,17.80
2023-03-24T03:50:46.633Z,17.43
2023-03-24T03:53:19.819Z,18.40
2023-03-24T03:55:46.966Z,18.80
2023-03-24T03:58:13.887Z,16.08
2023-03-24T04:00:42.481Z,18.13
2023-03-24T04:03:46.206Z,19.53
2023-03-24T04:06:12.745Z,17.40
2023-03-24T04:09:05.704Z,18.08
2023-03-24T04:11:50.158Z,17.60
2023-03-24T04:14:25.681Z,20.13
2023-03-24T04:17:08.312Z,16.17
2023-03-24T04:19:34.879Z,17.25
2023-03-24T04:22:01.506Z,17.10
2023-03-24T04:24:48.204Z,19.05
2023-03-24T04:27:20.902Z,18.00
2023-03-24T04:30:05.894Z,15.93
2023-03-24T04:32:48.882Z,19.77
2023-03-24T04:35:42.673Z,15.38
2023-03-24T04:38:14.179Z,16.05
2023-03-24T04:40:43.354Z,18.70
2023-03-24T04:43:15.561Z,19.13
2023-03-24T04:45:44.962Z,20.73
2023-03-24T04:48:12.892Z,20.67
2023-03-24T04:50:42.116Z,18.00
2023-03-24T04:53:10.341Z,20.65
2023-03-24T04:55:59.157Z,16.53
2023-03-24T04:58:25.734Z,17.52
2023-03-24T05:00:52.452Z,15.60
2023-03-24T05:03:19.508Z,16.33
2023-03-24T05:05:49.477Z,20.73
2023-03-24T05:08:17.015Z,14.40
2023-03-24T05:10:44.310Z,15.98
2023-03-24T05:13:14.281Z,15.63
2023-03-24T05:15:41.354Z,18.20
2023-03-24T05:18:08.971Z,16.05
2023-03-24T05:20:35.895Z,18.90
2023-03-24T05:23:02.436Z,17.77
2023-03-24T05:25:29.161Z,14.65
2023-03-24T05:27:55.784Z,17.08
2023-03-24T05:30:22.676Z,16.63
2023-03-24T05:32:49.416Z,14.77
2023-03-24T05:35:16.131Z,17.23
2023-03-24T05:37:43.012Z,17.17
2023-03-24T05:40:10.444Z,15.00
2023-03-24T05:42:37.028Z,18.33
2023-03-24T05:45:04.949Z,16.47
2023-03-24T05:47:31.695Z,16.33
2023-03-24T05:49:58.272Z,18.10
2023-03-24T05:52:27.338Z,15.13
2023-03-24T05:54:55.246Z,20.17
2023-03-24T05:57:21.882Z,13.83
2023-03-24T05:59:48.466Z,16.00
2023-03-24T06:02:15.379Z,15.65
2023-03-24T06:04:42.097Z,14.93
2023-03-24T06:07:08.768Z,14.60
2023-03-24T06:09:38.307Z,14.90
2023-03-24T06:12:08.151Z,15.75
2023-03-24T06:14:35.028Z,15.30
2023-03-24T06:17:01.545Z,16.00
2023-03-24T06:19:28.530Z,14.88
2023-03-24T06:21:55.165Z,17.23
2023-03-24T06:24:21.746Z,17.15
2023-03-24T06:26:51.023Z,16.85
2023-03-24T06:29:17.906Z,14.32
2023-03-24T06:31:45.360Z,14.25
2023-03-24T06:34:12.202Z,12.87
2023-03-24T06:36:38.761Z,14.48
2023-03-24T06:39:05.504Z,13.18
2023-03-24T06:41:32.644Z,14.70
2023-03-24T06:43:59.254Z,15.85
2023-03-24T06:46:25.973Z,11.67
2023-03-24T06:48:52.638Z,15.38
2023-03-24T06:51:19.543Z,17.30
2023-03-24T06:53:46.347Z,12.45
2023-03-24T06:56:13.342Z,12.10
2023-03-24T06:58:39.970Z,13.77
2023-03-24T07:01:06.555Z,12.98
2023-03-24T07:03:35.661Z,11.60
2023-03-24T07:06:02.301Z,14.82
2023-03-24T07:08:37.953Z,11.55
2023-03-24T07:11:05.706Z,12.80
2023-03-24T07:13:32.393Z,12.82
2023-03-24T07:15:58.996Z,11.70
2023-03-24T07:18:25.542Z,11.20
2023-03-24T07:20:55.176Z,10.32
2023-03-24T07:23:21.768Z,10.30
2023-03-24T07:25:48.467Z,12.25
2023-03-24T07:28:15.097Z,12.02
2023-03-24T07:30:41.693Z,11.25
2023-03-24T07:33:09.456Z,11.13
2023-03-24T07:35:36.163Z,9.87
2023-03-24T07:38:02.862Z,12.43
2023-03-24T07:40:29.608Z,13.30
2023-03-24T07:43:00.595Z,9.77
2023-03-24T07:45:27.558Z,11.10
2023-03-24T07:47:54.578Z,13.47
2023-03-24T07:50:21.123Z,10.15
2023-03-24T07:52:49.178Z,11.68
2023-03-24T07:55:15.958Z,11.07
2023-03-24T07:57:45.460Z,13.60
2023-03-24T08:00:12.681Z,11.10
2023-03-24T08:02:39.528Z,11.07
2023-03-24T08:05:06.428Z,13.70
2023-03-24T08:07:33.124Z,12.15
2023-03-24T08:09:59.978Z,10.60
2023-03-24T08:12:29.568Z,10.90
2023-03-24T08:14:56.351Z,13.88
2023-03-24T08:17:22.882Z,9.98
2023-03-24T08:19:59.497Z,11.07
2023-03-24T08:22:27.998Z,11.80
2023-03-24T08:24:54.674Z,12.67
2023-03-24T08:27:23.111Z,11.57
2023-03-24T08:29:49.728Z,14.73
2023-03-24T08:32:16.509Z,11.55
2023-03-24T08:34:43.202Z,12.82
2023-03-24T08:37:09.730Z,10.70
2023-03-24T08:39:36.286Z,10.43
2023-03-24T08:42:03.386Z,10.95
2023-03-24T08:44:33.002Z,11.32
2023-03-24T08:47:01.245Z,11.15
2023-03-24T08:49:28.072Z,11.17
2023-03-24T08:51:54.612Z,8.75
2023-03-24T08:54:22.579Z,10.23
2023-03-24T08:56:50.112Z,13.50
2023-03-24T08:59:17.288Z,11.05
2023-03-24T09:01:44.018Z,11.63
2023-03-24T09:04:10.655Z,10.82
2023-03-24T09:06:38.178Z,9.93
2023-03-24T09:09:07.520Z,9.52
2023-03-24T09:11:35.792Z,10.65
2023-03-24T09:14:03.332Z,11.23
2023-03-24T09:16:29.990Z,10.73
2023-03-24T09:18:56.654Z,10.32
2023-03-24T09:21:23.725Z,8.38
2023-03-24T09:23:50.276Z,12.20
2023-03-24T09:26:26.288Z,8.20
2023-03-24T09:28:53.277Z,8.90
2023-03-24T09:31:30.001Z,9.77
2023-03-24T09:34:01.151Z,8.27
2023-03-24T09:36:31.213Z,9.50
2023-03-24T09:38:58.009Z,10.90
2023-03-24T09:41:34.644Z,8.52
2023-03-24T09:44:14.690Z,11.20
2023-03-24T09:47:22.625Z,8.48
2023-03-24T09:49:49.662Z,11.02
2023-03-24T09:52:21.429Z,9.60
2023-03-24T09:55:11.269Z,10.57
2023-03-24T09:57:41.004Z,10.13
2023-03-24T10:00:16.617Z,9.35
2023-03-24T10:02:43.709Z,8.57
2023-03-24T10:05:17.144Z,9.73
2023-03-24T10:07:53.621Z,8.77
2023-03-24T10:10:44.484Z,8.13
2023-03-24T10:13:38.680Z,12.07
2023-03-24T10:16:20.815Z,9.77
2023-03-24T10:19:13.772Z,9.17
2023-03-24T10:21:53.280Z,7.88
2023-03-24T10:24:31.296Z,13.57
2023-03-24T10:27:14.926Z,9.13
2023-03-24T10:29:43.301Z,8.70
2023-03-24T10:32:24.662Z,9.70
2023-03-24T10:34:57.506Z,9.20
2023-03-24T10:37:24.380Z,8.02
2023-03-24T10:39:51.875Z,7.88
2023-03-24T10:42:24.473Z,12.50
2023-03-24T10:44:52.450Z,8.53
2023-03-24T10:47:29.006Z,10.50
2023-03-24T10:50:12.003Z,10.27
2023-03-24T10:52:41.946Z,9.50
2023-03-24T10:55:16.346Z,9.27
2023-03-24T10:57:46.132Z,10.50
2023-03-24T11:00:45.225Z,8.60
2023-03-24T11:03:16.830Z,11.35
2023-03-24T11:05:44.810Z,7.50
2023-03-24T11:08:17.331Z,10.18
2023-03-24T11:10:44.266Z,7.40
2023-03-24T11:13:29.035Z,6.97
2023-03-24T11:16:07.506Z,7.80
2023-03-24T11:18:35.270Z,8.43
2023-03-24T11:21:04.519Z,6.38
2023-03-24T11:23:39.243Z,6.77
2023-03-24T11:26:09.885Z,9.00
2023-03-24T11:28:45.461Z,8.65
2023-03-24T11:31:22.093Z,7.85
2023-03-24T11:33:57.530Z,7.60
2023-03-24T11:36:30.436Z,7.90
2023-03-24T11:39:04.029Z,7.70
2023-03-24T11:41:30.682Z,12.60
2023-03-24T11:44:24.145Z,8.90
2023-03-24T11:46:55.849Z,8.52
2023-03-24T11:49:28.340Z,8.07
2023-03-24T11:51:55.939Z,8.13
2023-03-24T11:54:32.879Z,7.63
2023-03-24T11:57:04.587Z,9.10
2023-03-24T11:59:58.312Z,10.38
2023-03-24T12:02:53.085Z,6.83
2023-03-24T12:05:19.743Z,8.75
2023-03-24T12:08:07.128Z,9.88
2023-03-24T12:11:02.598Z,7.75
2023-03-24T12:13:45.206Z,9.82
2023-03-24T12:16:17.527Z,8.83
2023-03-24T12:19:04.533Z,17.13
2023-03-24T12:21:55.622Z,9.15
2023-03-24T12:24:31.540Z,7.88
2023-03-24T12:27:00.206Z,8.57
2023-03-24T12:29:36.056Z,8.97
2023-03-24T12:32:16.703Z,7.03
2023-03-24T12:35:09.865Z,11.13
2023-03-24T12:37:47.339Z,7.10
2023-03-24T12:40:38.588Z,6.38
2023-03-24T12:43:36.266Z,7.37
2023-03-24T12:46:17.594Z,7.57
2023-03-24T12:49:28.457Z,9.55
2023-03-24T12:52:18.175Z,6.18
2023-03-24T12:54:44.707Z,8.90
2023-03-24T12:57:16.518Z,12.57
2023-03-24T13:00:08.830Z,8.63
2023-03-24T13:02:46.158Z,10.85
2023-03-24T13:05:20.914Z,9.93
2023-03-24T13:07:50.321Z,6.75
2023-03-24T13:10:34.477Z,7.13
2023-03-24T13:13:13.833Z,7.47
2023-03-24T13:15:47.242Z,6.40
2023-03-24T13:18:33.010Z,11.82
2023-03-24T13:21:16.406Z,10.73
2023-03-24T13:24:00.893Z,9.27
2023-03-24T13:26:45.688Z,6.57
2023-03-24T13:29:49.035Z,10.50
2023-03-24T13:32:29.494Z,8.52
2023-03-24T13:35:20.001Z,9.32
2023-03-24T13:37:46.555Z,9.20
2023-03-24T13:40:25.289Z,9.25
2023-03-24T13:42:56.793Z,8.57
2023-03-24T13:45:31.368Z,8.85
2023-03-24T13:48:09.788Z,9.23
2023-03-24T13:51:00.483Z,9.53
2023-03-24T13:53:33.534Z,6.90
2023-03-24T13:56:01.087Z,7.85
2023-03-24T13:58:55.704Z,8.15
2023-03-24T14:01:37.616Z,8.13
2023-03-24T14:04:26.297Z,10.40
2023-03-24T14:06:57.794Z,7.70
2023-03-24T14:09:33.293Z,9.32
2023-03-24T14:12:02.544Z,10.35
2023-03-24T14:14:30.772Z,8.35
2023-03-24T14:16:57.981Z,7.50
2023-03-24T14:19:32.563Z,8.63
2023-03-24T14:22:15.408Z,8.00
2023-03-24T14:24:45.978Z,10.63
2023-03-24T14:27:31.637Z,12.20
2023-03-24T14:30:13.450Z,9.90
2023-03-24T14:32:49.791Z,8.35
2023-03-24T14:35:41.783Z,7.38
2023-03-24T14:38:14.275Z,7.38
2023-03-24T14:40:46.769Z,11.30
2023-03-24T14:43:26.786Z,7.20
2023-03-24T14:45:55.094Z,7.28
2023-03-24T14:48:35.692Z,7.30
2023-03-24T14:51:11.570Z,8.30
2023-03-24T14:53:39.285Z,7.10
2023-03-24T14:56:15.316Z,8.17
2023-03-24T14:58:44.112Z,6.15
2023-03-24T15:01:14.487Z,6.35
2023-03-24T15:04:01.502Z,7.20
2023-03-24T15:06:28.248Z,10.73
2023-03-24T15:08:57.158Z,13.20
2023-03-24T15:11:27.348Z,10.82
2023-03-24T15:13:55.679Z,11.30
2023-03-24T15:16:25.503Z,13.23
2023-03-24T15:19:01.876Z,8.98
2023-03-24T15:21:40.367Z,7.30
2023-03-24T15:24:21.791Z,6.55
2023-03-24T15:26:53.158Z,10.70
2023-03-24T15:29:20.193Z,6.53
2023-03-24T15:31:47.450Z,7.05
2023-03-24T15:34:33.478Z,11.00
2023-03-24T15:37:04.002Z,8.90
2023-03-24T15:39:38.790Z,7.45
2023-03-24T15:42:14.530Z,11.15
2023-03-24T15:44:41.834Z,7.10
2023-03-24T15:47:19.741Z,10.27
2023-03-24T15:49:58.211Z,10.52
2023-03-24T15:52:33.637Z,8.63
2023-03-24T15:55:19.302Z,7.18
2023-03-24T15:57:47.823Z,9.75
2023-03-24T16:00:18.186Z,10.30
2023-03-24T16:02:50.565Z,8.40
2023-03-24T16:05:31.614Z,8.45
2023-03-24T16:08:04.268Z,8.60
2023-03-24T16:10:40.385Z,7.40
2023-03-24T16:13:13.396Z,9.03
2023-03-24T16:15:58.945Z,9.70
2023-03-24T16:18:36.958Z,10.27
2023-03-24T16:21:28.376Z,11.27
2023-03-24T16:23:57.813Z,8.25
2023-03-24T16:26:29.857Z,9.87
2023-03-24T16:29:20.460Z,10.90
2023-03-24T16:31:49.373Z,7.50
2023-03-24T16:34:17.258Z,10.45
2023-03-24T16:36:43.946Z,10.35
2023-03-24T16:39:16.285Z,14.90
2023-03-24T16:41:42.990Z,12.32
2023-03-24T16:44:10.246Z,9.77
2023-03-24T16:46:37.971Z,7.47
2023-03-24T16:49:07.137Z,10.68
2023-03-24T16:51:34.253Z,12.63
2023-03-24T16:54:00.829Z,8.73
2023-03-24T16:56:27.466Z,11.35
2023-03-24T16:58:54.175Z,8.00
2023-03-24T17:01:32.943Z,10.73
2023-03-24T17:04:01.826Z,9.07
2023-03-24T17:06:30.380Z,8.75
2023-03-24T17:08:57.771Z,8.55
2023-03-24T17:11:30.210Z,11.18
2023-03-24T17:13:57.801Z,11.38
2023-03-24T17:16:24.385Z,10.67
2023-03-24T17:18:51.205Z,14.15
2023-03-24T17:21:19.090Z,15.48
2023-03-24T17:23:47.355Z,11.75
2023-03-24T17:26:13.926Z,11.88
2023-03-24T17:28:40.600Z,12.20
2023-03-24T17:31:07.418Z,10.63
2023-03-24T17:33:34.416Z,13.13
2023-03-24T17:36:01.018Z,12.20
2023-03-24T17:38:27.640Z,13.27
2023-03-24T17:41:01.265Z,14.93
2023-03-24T17:43:27.974Z,11.05
2023-03-24T17:45:59.028Z,11.40
2023-03-24T17:48:26.285Z,10.05
2023-03-24T17:50:53.522Z,12.38
2023-03-24T17:53:20.425Z,12.63
2023-03-24T17:55:47.036Z,14.57
2023-03-24T17:58:13.609Z,13.70
2023-03-24T18:00:40.300Z,12.88
2023-03-24T18:03:06.832Z,11.98
2023-03-24T18:05:33.391Z,10.83
2023-03-24T18:07:59.943Z,11.13
2023-03-24T18:10:26.517Z,17.08
2023-03-24T18:12:54.484Z,16.73
2023-03-24T18:15:21.189Z,16.98
2023-03-24T18:17:47.707Z,14.93
2023-03-24T18:20:14.486Z,14.23
2023-03-24T18:22:43.904Z,12.05
2023-03-24T18:25:11.744Z,9.75
2023-03-24T18:27:38.350Z,10.52
2023-03-24T18:30:06.188Z,11.13
2023-03-24T18:32:32.866Z,9.88
2023-03-24T18:34:59.993Z,8.75
2023-03-24T18:37:27.891Z,11.32
2023-03-24T18:39:54.529Z,12.90
2023-03-24T18:42:21.143Z,10.20
2023-03-24T18:44:48.140Z,9.93
2023-03-24T18:47:14.795Z,8.98
2023-03-24T18:49:41.648Z,11.00
2023-03-24T18:52:09.617Z,10.88
2023-03-24T18:54:36.477Z,10.33
2023-03-24T18:57:03.148Z,9.95
2023-03-24T18:59:30.022Z,11.43
2023-03-24T19:01:56.799Z,10.88
2023-03-24T19:04:23.345Z,13.75
2023-03-24T19:06:49.884Z,11.13
2023-03-24T19:09:16.654Z,13.10
2023-03-24T19:11:43.518Z,11.60
2023-03-24T19:14:10.351Z,10.40
2023-03-24T19:16:36.981Z,10.73
2023-03-24T19:19:04.232Z,11.77
2023-03-24T19:21:30.985Z,15.43
2023-03-24T19:23:57.516Z,13.77
2023-03-24T19:26:24.099Z,12.00
2023-03-24T19:28:50.928Z,14.27
2023-03-24T19:31:19.234Z,15.83
2023-03-24T19:33:47.071Z,12.98
2023-03-24T19:36:14.248Z,11.85
2023-03-24T19:38:40.862Z,11.02
2023-03-24T19:41:11.451Z,12.90
2023-03-24T19:43:38.148Z,12.57
2023-03-24T19:46:05.949Z,11.63
2023-03-24T19:48:33.571Z,11.10
2023-03-24T19:51:00.159Z,13.15
2023-03-24T19:53:26.833Z,12.20
2023-03-24T19:55:56.614Z,12.33
2023-03-24T19:58:23.307Z,12.73
2023-03-24T20:00:51.165Z,11.60
2023-03-24T20:03:18.020Z,12.98
2023-03-24T20:05:44.726Z,11.73
2023-03-24T20:08:14.178Z,17.77
2023-03-24T20:10:40.916Z,11.60
2023-03-24T20:13:08.583Z,10.50
2023-03-24T20:15:35.539Z,9.60
2023-03-24T20:18:02.351Z,13.35
2023-03-24T20:20:29.025Z,12.43
2023-03-24T20:22:55.628Z,15.90
2023-03-24T20:25:22.185Z,12.23
2023-03-24T20:27:48.854Z,13.15
2023-03-24T20:30:20.291Z,13.75
2023-03-24T20:32:47.204Z,14.17
2023-03-24T20:35:14.310Z,14.73
2023-03-24T20:37:40.889Z,13.30
2023-03-24T20:40:08.476Z,13.43
2023-03-24T20:42:35.256Z,9.98
2023-03-24T20:45:01.771Z,9.70
2023-03-24T20:47:28.345Z,12.23
2023-03-24T20:49:55.034Z,9.38
2023-03-24T20:52:21.686Z,11.82
2023-03-24T20:54:48.281Z,9.23
2023-03-24T20:57:14.947Z,9.53
2023-03-24T20:59:41.681Z,9.18
2023-03-24T21:02:10.721Z,9.15
2023-03-24T21:04:37.401Z,8.88
2023-03-24T21:07:03.960Z,10.65
2023-03-24T21:09:30.560Z,10.23
2023-03-24T21:11:57.127Z,11.13
2023-03-24T21:14:23.673Z,8.18
2023-03-24T21:16:50.506Z,8.77
2023-03-24T21:19:17.581Z,9.10
2023-03-24T21:21:44.155Z,9.27
2023-03-24T21:24:11.016Z,8.70
2023-03-24T21:26:37.518Z,11.32
2023-03-24T21:29:04.110Z,10.15
2023-03-24T21:31:30.782Z,10.65
2023-03-24T21:33:57.695Z,15.97
2023-03-24T21:36:26.340Z,14.68
2023-03-24T21:38:52.961Z,13.38
2023-03-24T21:41:21.006Z,11.60
2023-03-24T21:43:47.880Z,11.52
2023-03-24T21:46:14.497Z,11.67
2023-03-24T21:48:41.382Z,9.05
2023-03-24T21:51:07.948Z,12.40
2023-03-24T21:53:34.551Z,8.35
2023-03-24T21:56:01.116Z,9.65
2023-03-24T21:58:27.961Z,9.57
2023-03-24T22:00:54.988Z,8.77
2023-03-24T22:03:21.713Z,9.15
2023-03-24T22:05:48.765Z,10.50
2023-03-24T22:08:15.626Z,10.43
2023-03-24T22:10:42.168Z,12.20
2023-03-24T22:13:09.505Z,14.32
2023-03-24T22:15:36.846Z,8.90
2023-03-24T22:18:03.750Z,10.10
2023-03-24T22:20:30.496Z,11.27
2023-03-24T22:22:57.209Z,9.47
2023-03-24T22:25:24.083Z,10.18
2023-03-24T22:27:52.602Z,8.90
2023-03-24T22:30:19.561Z,9.20
2023-03-24T22:32:46.097Z,9.60
2023-03-24T22:35:12.892Z,9.97
2023-03-24T22:37:41.616Z,9.50
2023-03-24T22:40:08.989Z,9.23
2023-03-24T22:42:35.774Z,10.43
2023-03-24T22:45:02.440Z,9.55
2023-03-24T22:47:29.170Z,9.07
2023-03-24T22:49:55.765Z,10.18
2023-03-24T22:52:22.295Z,11.88
2023-03-24T22:54:48.828Z,13.88
2023-03-24T22:57:15.465Z,12.27
2023-03-24T22:59:41.990Z,15.63
2023-03-24T23:02:10.267Z,15.50
2023-03-24T23:04:38.048Z,12.10
2023-03-24T23:07:04.586Z,12.23
2023-03-24T23:09:31.387Z,14.15
2023-03-24T23:11:57.929Z,14.57
2023-03-24T23:14:24.563Z,11.45
2023-03-24T23:16:51.571Z,11.73
2023-03-24T23:19:18.165Z,14.90
2023-03-24T23:21:44.780Z,11.85
2023-03-24T23:24:11.303Z,11.07
2023-03-24T23:26:38.019Z,11.23
2023-03-24T23:29:04.673Z,10.73
2023-03-24T23:31:31.212Z,11.15
2023-03-24T23:33:58.597Z,13.52
2023-03-24T23:36:25.364Z,12.83
2023-03-24T23:38:52.676Z,10.45
2023-03-24T23:41:22.527Z,11.75
2023-03-24T23:43:50.529Z,10.93
2023-03-24T23:46:18.291Z,12.98
2023-03-24T23:48:45.417Z,15.00
2023-03-24T23:51:12.336Z,13.30
2023-03-24T23:53:38.961Z,17.88
2023-03-24T23:56:07.541Z,12.88
2023-03-24T23:58:37.382Z,15.32
